Time;durP1;ratioP1;P1;durP2;ratioP2;P2;SDS_P1;SDS_P2;PMS_P1;PMS_P2;Temp;Humidity;BMP_temperature;BMP_pressure;BME280_temperature;BME280_humidity;BME280_pressure;Samples;Min_cycle;Max_cycle;Signal;HPM_P1;HPM_P2
2021/06/11 00:00:54;;;;;;;3.13;2.30;;;17.70;77.60;;;;;;5117864;28;20106;-69
2021/06/11 00:03:20;;;;;;;2.50;2.20;;;17.80;78.70;;;;;;5117538;28;20029;-69
2021/06/11 00:05:45;;;;;;;2.53;2.30;;;17.70;78.80;;;;;;5117431;28;20098;-69
2021/06/11 00:08:12;;;;;;;6.82;2.35;;;17.70;79.40;;;;;;5117364;28;20073;-69
2021/06/11 00:10:38;;;;;;;3.88;2.40;;;17.70;79.00;;;;;;5117366;28;20100;-69
2021/06/11 00:13:05;;;;;;;2.42;1.90;;;17.60;79.20;;;;;;5117619;28;20086;-69
2021/06/11 00:15:31;;;;;;;3.17;2.20;;;17.60;79.00;;;;;;5117551;28;20020;-69
2021/06/11 00:17:57;;;;;;;3.03;2.30;;;17.60;79.30;;;;;;5117605;28;20024;-69
2021/06/11 00:20:23;;;;;;;3.33;2.42;;;17.60;79.70;;;;;;5117294;28;20033;-69
2021/06/11 00:22:49;;;;;;;2.45;2.25;;;17.50;79.90;;;;;;5117345;28;20054;-69
2021/06/11 00:25:19;;;;;;;2.40;2.20;;;17.50;80.00;;;;;;5117162;28;20039;-69
2021/06/11 00:27:45;;;;;;;3.10;2.25;;;17.50;80.30;;;;;;5117432;28;20020;-69
2021/06/11 00:30:12;;;;;;;2.67;2.00;;;17.50;80.70;;;;;;5117442;28;20027;-69
2021/06/11 00:32:39;;;;;;;3.10;2.40;;;17.40;81.40;;;;;;5117115;28;20411;-69
2021/06/11 00:35:07;;;;;;;2.50;2.22;;;17.40;82.60;;;;;;5117058;28;20023;-69
2021/06/11 00:37:33;;;;;;;2.92;2.50;;;17.40;81.60;;;;;;5117055;28;20034;-69
2021/06/11 00:39:59;;;;;;;3.08;2.60;;;17.40;82.30;;;;;;5117403;28;20035;-69
2021/06/11 00:42:25;;;;;;;4.70;3.03;;;17.40;82.60;;;;;;5117119;28;20103;-69
2021/06/11 00:44:51;;;;;;;4.35;3.30;;;17.40;82.40;;;;;;5116953;28;20059;-69
2021/06/11 00:47:17;;;;;;;6.22;2.85;;;17.30;83.40;;;;;;5117233;28;20034;-69
2021/06/11 00:49:44;;;;;;;3.80;2.75;;;17.30;83.20;;;;;;5116968;28;20412;-69
2021/06/11 00:52:10;;;;;;;3.25;2.50;;;17.30;82.80;;;;;;5117237;28;20335;-69
2021/06/11 00:54:36;;;;;;;3.03;2.22;;;17.50;80.50;;;;;;5116885;28;20027;-69
2021/06/11 00:57:02;;;;;;;3.33;2.28;;;17.60;81.40;;;;;;5116952;28;20028;-69
2021/06/11 00:59:28;;;;;;;6.38;2.42;;;17.60;81.00;;;;;;5116884;28;20076;-69
2021/06/11 01:01:54;;;;;;;5.93;2.28;;;17.70;81.50;;;;;;5116847;28;20102;-69
2021/06/11 01:04:19;;;;;;;3.97;1.90;;;17.70;81.10;;;;;;5118234;28;20070;-69
2021/06/11 01:06:48;;;;;;;2.13;1.92;;;17.70;81.00;;;;;;5121139;28;20050;-69
2021/06/11 01:09:15;;;;;;;2.58;2.35;;;17.70;81.80;;;;;;5121049;28;20028;-69
2021/06/11 01:11:42;;;;;;;2.17;1.83;;;17.70;80.90;;;;;;5121095;28;20020;-69
2021/06/11 01:14:09;;;;;;;2.35;1.92;;;17.80;80.80;;;;;;5120705;28;20389;-69
2021/06/11 01:16:36;;;;;;;2.53;2.28;;;17.80;77.80;;;;;;5120916;28;20118;-69
2021/06/11 01:19:02;;;;;;;3.22;1.83;;;18.00;76.90;;;;;;5120959;28;20189;-69
2021/06/11 01:21:31;;;;;;;3.03;1.90;;;18.20;76.30;;;;;;5120610;27;20035;-69
2021/06/11 01:24:18;;;;;;;2.22;1.75;;;18.40;75.50;;;;;;5120605;28;20024;-69
2021/06/11 01:26:50;;;;;;;3.40;1.85;;;18.50;75.50;;;;;;5120500;28;20069;-69
2021/06/11 01:29:22;;;;;;;2.72;1.70;;;18.70;73.80;;;;;;5120727;28;20096;-69
2021/06/11 01:31:55;;;;;;;2.50;1.92;;;18.80;74.50;;;;;;5120741;28;20315;-69
2021/06/11 01:34:29;;;;;;;2.78;1.80;;;18.80;73.00;;;;;;5120762;28;20073;-69
2021/06/11 01:37:17;;;;;;;6.50;1.75;;;18.90;73.60;;;;;;5120277;28;20027;-69
2021/06/11 01:39:48;;;;;;;4.75;1.77;;;19.00;72.80;;;;;;5120596;28;20019;-69
2021/06/11 01:42:14;;;;;;;6.10;1.77;;;19.00;72.90;;;;;;5120517;28;20046;-69
2021/06/11 01:44:43;;;;;;;2.00;1.52;;;19.10;72.10;;;;;;5120153;28;20044;-69
2021/06/11 01:47:12;;;;;;;2.05;1.48;;;19.10;72.20;;;;;;5120084;28;20024;-69
2021/06/11 01:49:39;;;;;;;3.55;1.70;;;19.10;72.60;;;;;;5120382;28;20028;-69
2021/06/11 01:52:07;;;;;;;2.72;1.83;;;19.10;72.80;;;;;;5119995;28;20016;-69
2021/06/11 01:54:34;;;;;;;3.15;1.75;;;19.10;73.20;;;;;;5121049;28;20322;-69
2021/06/11 01:57:01;;;;;;;2.97;1.88;;;19.10;72.80;;;;;;5119926;28;20023;-69
2021/06/11 01:59:27;;;;;;;3.95;1.90;;;19.10;72.40;;;;;;5119886;28;20042;-69
2021/06/11 02:01:55;;;;;;;4.55;1.95;;;19.00;73.10;;;;;;5118761;28;20020;-69
2021/06/11 02:04:22;;;;;;;5.25;1.80;;;19.00;73.10;;;;;;5120148;28;20427;-69
2021/06/11 02:06:50;;;;;;;2.88;1.95;;;19.00;73.50;;;;;;5119658;28;20098;-69
2021/06/11 02:09:17;;;;;;;4.35;2.10;;;18.90;73.90;;;;;;5119588;28;20468;-69
2021/06/11 02:11:43;;;;;;;4.28;2.33;;;18.90;74.20;;;;;;5119604;28;20415;-69
2021/06/11 02:14:14;;;;;;;2.30;1.90;;;18.90;74.60;;;;;;5119899;28;20123;-69
2021/06/11 02:16:42;;;;;;;3.58;1.70;;;18.80;75.20;;;;;;5119470;28;20024;-69
2021/06/11 02:19:07;;;;;;;4.35;2.22;;;18.70;76.20;;;;;;5119506;28;20111;-69
2021/06/11 02:21:35;;;;;;;2.58;2.38;;;18.60;76.70;;;;;;5119761;28;20197;-69
2021/06/11 02:24:01;;;;;;;2.92;2.45;;;18.40;77.30;;;;;;5119475;28;20063;-69
2021/06/11 02:26:29;;;;;;;3.15;2.70;;;18.30;78.20;;;;;;5119278;28;20420;-69
2021/06/11 02:28:55;;;;;;;6.20;3.10;;;18.20;79.80;;;;;;5119569;27;20028;-69
2021/06/11 02:31:22;;;;;;;2.97;2.35;;;18.20;80.20;;;;;;5119602;28;20297;-69
2021/06/11 02:33:47;;;;;;;4.50;2.55;;;18.20;80.60;;;;;;5119573;28;20032;-69
2021/06/11 02:36:14;;;;;;;6.30;2.33;;;18.20;81.00;;;;;;5119422;28;20289;-69
2021/06/11 02:38:39;;;;;;;3.20;2.90;;;18.20;80.80;;;;;;5119106;28;20028;-69
2021/06/11 02:41:08;;;;;;;4.32;3.92;;;18.10;79.70;;;;;;5119053;28;20023;-69
2021/06/11 02:43:39;;;;;;;3.70;3.40;;;18.20;79.50;;;;;;5118949;28;20038;-69
2021/06/11 02:46:29;;;;;;;4.47;3.05;;;18.20;79.40;;;;;;5118983;28;20063;-69
2021/06/11 02:49:08;;;;;;;4.95;4.30;;;18.30;79.20;;;;;;5118836;28;20320;-69
2021/06/11 02:51:39;;;;;;;3.08;2.78;;;18.40;78.50;;;;;;5118896;28;20034;-69
2021/06/11 02:54:15;;;;;;;3.22;2.35;;;18.50;75.70;;;;;;5118841;28;20011;-69
2021/06/11 02:56:45;;;;;;;2.10;1.90;;;18.60;75.50;;;;;;5119086;28;20046;-69
2021/06/11 02:59:33;;;;;;;4.13;2.90;;;18.80;76.80;;;;;;5119068;28;20095;-69
2021/06/11 03:02:09;;;;;;;4.65;3.83;;;18.80;77.90;;;;;;5118710;28;20039;-69
2021/06/11 03:04:39;;;;;;;5.40;3.53;;;18.70;77.70;;;;;;5118492;28;20114;-69
2021/06/11 03:07:05;;;;;;;3.50;2.85;;;18.60;75.70;;;;;;5118580;28;20035;-69
2021/06/11 03:09:34;;;;;;;4.45;3.20;;;18.60;75.60;;;;;;5118431;28;20031;-69
2021/06/11 03:12:03;;;;;;;6.93;3.55;;;18.60;75.40;;;;;;5118725;28;20034;-69
2021/06/11 03:14:29;;;;;;;4.47;3.50;;;18.60;75.40;;;;;;5118905;27;20027;-69
2021/06/11 03:16:59;;;;;;;3.67;3.10;;;18.70;75.60;;;;;;5118347;28;20376;-69
2021/06/11 03:19:29;;;;;;;6.15;3.67;;;18.70;74.90;;;;;;5118286;28;20028;-69
2021/06/11 03:22:19;;;;;;;4.75;3.90;;;18.80;75.00;;;;;;5118578;28;20027;-69
2021/06/11 03:24:54;;;;;;;3.33;3.03;;;18.90;75.50;;;;;;5118186;28;20439;-69
2021/06/11 03:27:24;;;;;;;;;;;18.90;74.90;;;;;;5118364;28;20318;-69
2021/06/11 03:30:07;;;;;;;2.90;2.13;;;18.90;74.70;;;;;;5117130;28;20276;-69
2021/06/11 03:32:44;;;;;;;3.83;2.65;;;18.90;74.50;;;;;;5118386;28;20077;-69
2021/06/11 03:35:27;;;;;;;3.58;3.10;;;18.90;74.50;;;;;;5118317;28;20031;-69
2021/06/11 03:37:55;;;;;;;3.72;3.00;;;18.90;75.20;;;;;;5118334;28;20024;-69
2021/06/11 03:40:25;;;;;;;5.97;3.33;;;18.90;74.60;;;;;;5118260;28;20028;-69
2021/06/11 03:42:53;;;;;;;3.63;2.92;;;18.90;74.80;;;;;;5117783;28;20027;-69
2021/06/11 03:45:20;;;;;;;7.22;3.60;;;19.00;75.30;;;;;;5117660;28;20408;-69
2021/06/11 03:47:48;;;;;;;3.67;3.38;;;19.00;75.40;;;;;;5117760;28;20027;-69
2021/06/11 03:50:21;;;;;;;3.47;2.67;;;19.00;75.30;;;;;;5117763;28;20107;-69
2021/06/11 03:52:49;;;;;;;2.80;2.50;;;19.00;76.30;;;;;;5118026;27;20426;-69
2021/06/11 03:55:21;;;;;;;3.80;2.60;;;19.10;77.20;;;;;;5117617;28;20030;-69
2021/06/11 03:58:06;;;;;;;3.72;2.70;;;19.00;78.40;;;;;;5117940;28;20360;-69
2021/06/11 04:00:33;;;;;;;4.20;3.80;;;18.90;78.70;;;;;;5117631;28;20115;-69
2021/06/11 04:03:00;;;;;;;5.50;4.38;;;18.90;79.00;;;;;;5117542;28;20020;-69
2021/06/11 04:05:26;;;;;;;6.70;5.80;;;18.80;79.50;;;;;;5117453;28;20035;-69
2021/06/11 04:07:57;;;;;;;6.93;4.00;;;18.70;80.00;;;;;;5117366;28;20030;-69
2021/06/11 04:10:33;;;;;;;6.60;4.60;;;18.70;80.90;;;;;;5117704;28;20308;-69
2021/06/11 04:13:18;;;;;;;9.90;5.53;;;18.80;81.50;;;;;;5117587;28;20030;-69
2021/06/11 04:15:48;;;;;;;4.78;4.28;;;18.80;81.40;;;;;;5117625;28;20068;-69
2021/06/11 04:18:22;;;;;;;5.13;3.75;;;18.80;77.60;;;;;;5117365;28;20027;-69
2021/06/11 04:20:51;;;;;;;3.92;3.53;;;18.80;76.90;;;;;;5117348;28;20042;-69
2021/06/11 04:23:23;;;;;;;6.07;3.30;;;19.00;77.80;;;;;;5117590;28;20024;-69
2021/06/11 04:25:53;;;;;;;3.47;3.15;;;19.00;79.10;;;;;;5117203;28;20035;-69
2021/06/11 04:28:19;;;;;;;5.53;3.92;;;19.10;79.70;;;;;;5117120;28;20427;-69
2021/06/11 04:30:45;;;;;;;5.57;4.22;;;19.10;80.10;;;;;;5117496;28;20031;-69
2021/06/11 04:33:24;;;;;;;5.80;3.85;;;19.10;80.90;;;;;;5117166;28;20304;-69
2021/06/11 04:35:50;;;;;;;4.13;3.58;;;19.10;79.90;;;;;;5117574;28;20040;-69
2021/06/11 04:38:17;;;;;;;6.90;4.85;;;19.10;78.70;;;;;;5117102;28;20034;-69
2021/06/11 04:40:43;;;;;;;5.32;4.65;;;19.10;78.00;;;;;;5120496;28;20069;-69
2021/06/11 04:43:09;;;;;;;5.47;4.32;;;19.20;78.10;;;;;;5121656;28;20343;-69
2021/06/11 04:45:35;;;;;;;5.03;3.92;;;19.30;78.80;;;;;;5121044;28;20427;-69
2021/06/11 04:48:01;;;;;;;4.32;3.92;;;19.40;79.10;;;;;;5121193;28;20085;-69
2021/06/11 04:50:27;;;;;;;4.18;3.75;;;19.40;78.50;;;;;;5121514;28;20026;-69
2021/06/11 04:52:53;;;;;;;5.93;4.30;;;19.50;78.30;;;;;;5121140;28;20315;-69
2021/06/11 04:55:19;;;;;;;4.60;3.85;;;19.50;77.50;;;;;;5121424;28;20035;-69
2021/06/11 04:57:45;;;;;;;4.50;3.08;;;19.50;76.80;;;;;;5121416;28;20037;-69
2021/06/11 05:00:11;;;;;;;5.22;4.20;;;19.60;78.00;;;;;;5121389;28;20319;-69
2021/06/11 05:02:37;;;;;;;5.75;4.50;;;19.70;77.80;;;;;;5121304;28;20347;-69
2021/06/11 05:05:04;;;;;;;4.78;2.83;;;19.80;77.40;;;;;;5121230;28;20036;-69
2021/06/11 05:07:29;;;;;;;3.38;2.40;;;19.90;80.20;;;;;;5120787;28;20119;-69
2021/06/11 05:09:55;;;;;;;3.05;2.53;;;20.00;80.80;;;;;;5120871;28;20095;-69
2021/06/11 05:12:21;;;;;;;2.80;2.60;;;20.10;80.60;;;;;;5120812;28;20023;-69
2021/06/11 05:14:47;;;;;;;9.07;2.90;;;20.20;81.70;;;;;;5121192;28;20058;-69
2021/06/11 05:17:12;;;;;;;5.93;3.80;;;20.30;81.70;;;;;;5121081;28;20019;-69
2021/06/11 05:19:39;;;;;;;3.78;3.38;;;20.40;77.50;;;;;;5120975;28;20339;-69
2021/06/11 05:22:05;;;;;;;4.38;2.88;;;20.50;78.60;;;;;;5120626;28;20035;-69
2021/06/11 05:24:32;;;;;;;3.35;2.90;;;20.60;78.40;;;;;;5120616;28;20120;-69
2021/06/11 05:26:58;;;;;;;3.10;2.80;;;20.70;77.30;;;;;;5120480;28;20431;-69
2021/06/11 05:29:24;;;;;;;3.67;2.47;;;20.80;79.70;;;;;;5120427;28;20115;-69
2021/06/11 05:31:50;;;;;;;3.88;2.58;;;20.90;80.30;;;;;;5120735;28;20019;-69
2021/06/11 05:34:15;;;;;;;2.65;2.20;;;20.90;80.00;;;;;;5120410;28;20328;-69
2021/06/11 05:36:41;;;;;;;3.08;2.50;;;20.90;80.60;;;;;;5120595;28;20020;-69
2021/06/11 05:39:07;;;;;;;4.68;2.75;;;21.00;81.40;;;;;;5120622;28;20028;-69
2021/06/11 05:41:33;;;;;;;5.20;3.20;;;21.10;82.00;;;;;;5120230;28;20023;-69
2021/06/11 05:43:59;;;;;;;3.95;2.40;;;21.20;80.60;;;;;;5120369;28;20043;-69
2021/06/11 05:46:24;;;;;;;3.17;2.85;;;21.40;80.20;;;;;;5120475;28;20028;-69
2021/06/11 05:48:50;;;;;;;3.03;2.60;;;21.50;80.10;;;;;;5120008;28;20399;-69
2021/06/11 05:51:16;;;;;;;1.88;1.70;;;21.70;77.10;;;;;;5119650;28;20019;-69
2021/06/11 05:53:42;;;;;;;2.78;2.53;;;21.80;74.20;;;;;;5120378;27;20464;-69
2021/06/11 05:56:09;;;;;;;2.80;2.10;;;21.90;72.00;;;;;;5119913;28;20436;-69
2021/06/11 05:58:35;;;;;;;3.15;2.30;;;21.90;72.60;;;;;;5120212;28;20102;-69
2021/06/11 06:01:02;;;;;;;2.90;2.22;;;22.10;73.50;;;;;;5119900;28;20107;-69
2021/06/11 06:03:28;;;;;;;2.20;2.00;;;22.30;75.40;;;;;;5119882;28;20036;-69
2021/06/11 06:05:54;;;;;;;3.03;2.00;;;22.50;68.70;;;;;;5119748;28;20031;-69
2021/06/11 06:08:20;;;;;;;6.60;2.35;;;22.60;73.50;;;;;;5119667;28;20027;-69
2021/06/11 06:10:45;;;;;;;3.28;2.03;;;22.70;74.40;;;;;;5119741;28;20091;-69
2021/06/11 06:13:11;;;;;;;3.50;2.65;;;22.80;74.60;;;;;;5119908;28;20035;-69
2021/06/11 06:15:37;;;;;;;3.42;2.55;;;22.80;71.50;;;;;;5119557;28;20022;-69
2021/06/11 06:18:03;;;;;;;3.38;2.38;;;22.80;71.90;;;;;;5119870;28;20039;-69
2021/06/11 06:20:29;;;;;;;2.05;1.48;;;22.80;72.70;;;;;;5119507;28;20019;-69
2021/06/11 06:22:55;;;;;;;3.15;1.38;;;22.90;69.90;;;;;;5119462;28;20031;-69
2021/06/11 06:25:21;;;;;;;2.20;1.80;;;22.90;71.00;;;;;;5119411;28;20110;-69
2021/06/11 06:27:47;;;;;;;2.05;1.67;;;22.80;69.70;;;;;;5119272;28;20076;-69
2021/06/11 06:30:15;;;;;;;1.67;1.30;;;22.70;68.40;;;;;;5119669;28;20024;-69
2021/06/11 06:32:42;;;;;;;1.98;1.50;;;22.50;69.60;;;;;;5119527;28;20095;-69
2021/06/11 06:35:10;;;;;;;1.75;1.30;;;22.30;68.90;;;;;;5119206;28;20145;-69
2021/06/11 06:37:36;;;;;;;2.75;1.40;;;22.10;69.80;;;;;;5119153;28;20027;-69
2021/06/11 06:40:04;;;;;;;2.20;1.33;;;22.00;69.90;;;;;;5119093;28;20035;-69
2021/06/11 06:42:29;;;;;;;3.38;1.50;;;21.90;70.20;;;;;;5119255;28;20035;-69
2021/06/11 06:44:55;;;;;;;1.83;1.30;;;21.80;71.80;;;;;;5118807;28;20054;-69
2021/06/11 06:47:21;;;;;;;2.25;1.77;;;21.80;73.40;;;;;;5118927;28;20023;-69
2021/06/11 06:49:47;;;;;;;2.03;1.50;;;21.90;73.60;;;;;;5119229;28;20020;-69
2021/06/11 06:52:17;;;;;;;1.83;1.60;;;22.00;74.30;;;;;;5119216;28;20020;-69
2021/06/11 06:54:43;;;;;;;3.25;1.50;;;22.10;74.90;;;;;;5119105;28;20015;-69
2021/06/11 06:57:10;;;;;;;3.08;1.52;;;22.20;76.00;;;;;;5118825;28;20322;-69
2021/06/11 06:59:36;;;;;;;1.67;1.45;;;22.40;73.20;;;;;;5119036;28;20096;-69
2021/06/11 07:02:02;;;;;;;2.92;1.60;;;22.50;74.30;;;;;;5118178;28;20036;-69
2021/06/11 07:04:28;;;;;;;1.73;1.40;;;22.60;74.80;;;;;;5118717;28;20023;-69
2021/06/11 07:06:54;;;;;;;2.25;1.67;;;22.80;76.40;;;;;;5118863;28;20084;-68
2021/06/11 07:09:20;;;;;;;2.55;2.03;;;23.10;77.30;;;;;;5118523;28;20323;-69
2021/06/11 07:11:51;;;;;;;1.98;1.63;;;23.10;74.50;;;;;;5118789;28;20023;-69
2021/06/11 07:14:17;;;;;;;4.68;2.30;;;23.20;73.40;;;;;;5118808;28;20038;-69
2021/06/11 07:16:44;;;;;;;3.15;1.70;;;23.20;74.40;;;;;;5118633;27;20396;-69
2021/06/11 07:19:10;;;;;;;2.83;2.22;;;23.10;73.80;;;;;;5118684;28;20047;-69
2021/06/11 07:21:36;;;;;;;2.33;1.90;;;23.00;72.90;;;;;;5118626;28;20054;-69
2021/06/11 07:24:03;;;;;;;4.20;2.15;;;23.10;74.50;;;;;;5118289;28;20036;-69
2021/06/11 07:26:28;;;;;;;2.72;2.10;;;23.10;75.20;;;;;;5118457;28;20031;-69
2021/06/11 07:28:54;;;;;;;5.78;2.95;;;23.20;73.10;;;;;;5118369;28;20118;-69
2021/06/11 07:31:20;;;;;;;2.40;2.20;;;23.50;73.70;;;;;;5118155;28;20024;-69
2021/06/11 07:33:46;;;;;;;3.50;2.38;;;23.80;74.10;;;;;;5118404;28;20312;-69
2021/06/11 07:36:12;;;;;;;3.13;2.20;;;24.30;69.40;;;;;;5118298;28;20027;-69
2021/06/11 07:38:38;;;;;;;2.22;1.90;;;24.80;67.30;;;;;;5117988;28;20383;-69
2021/06/11 07:41:04;;;;;;;3.28;1.70;;;25.50;66.40;;;;;;5117960;28;20059;-69
2021/06/11 07:43:30;;;;;;;4.25;1.92;;;26.10;67.10;;;;;;5118260;28;20032;-70
2021/06/11 07:45:56;;;;;;;4.00;2.35;;;26.60;66.20;;;;;;5117644;28;20055;-69
2021/06/11 07:48:22;;;;;;;1.70;1.50;;;27.10;60.40;;;;;;5117743;28;20035;-70
2021/06/11 07:50:48;;;;;;;3.25;1.80;;;27.30;57.40;;;;;;5118053;28;20023;-69
2021/06/11 07:53:14;;;;;;;3.80;1.77;;;27.60;61.00;;;;;;5117719;28;20046;-70
2021/06/11 07:55:40;;;;;;;1.92;1.80;;;27.50;60.20;;;;;;5117642;28;20027;-70
2021/06/11 07:58:06;;;;;;;2.47;1.77;;;27.30;60.20;;;;;;5117587;28;20055;-70
2021/06/11 08:00:32;;;;;;;1.70;1.35;;;27.10;60.20;;;;;;5117911;28;20096;-69
2021/06/11 08:02:59;;;;;;;3.15;1.90;;;27.10;64.70;;;;;;5117561;28;20031;-69
2021/06/11 08:05:26;;;;;;;3.72;1.90;;;26.70;63.70;;;;;;5117792;28;20020;-69
2021/06/11 08:07:52;;;;;;;3.08;1.65;;;26.40;66.10;;;;;;5117450;28;20475;-69
2021/06/11 08:10:18;;;;;;;2.67;1.75;;;26.10;65.80;;;;;;5117459;28;20073;-69
2021/06/11 08:12:44;;;;;;;2.38;1.95;;;26.20;65.30;;;;;;5117486;28;20047;-69
2021/06/11 08:15:10;;;;;;;2.25;1.90;;;26.10;64.00;;;;;;5117722;28;20319;-69
2021/06/11 08:17:36;;;;;;;4.00;2.35;;;26.10;64.60;;;;;;5117636;28;20093;-69
2021/06/11 08:20:04;;;;;;;6.75;1.90;;;26.00;64.80;;;;;;5117310;28;20399;-69
2021/06/11 08:22:30;;;;;;;3.83;1.95;;;25.90;64.30;;;;;;5117290;28;20373;-69
2021/06/11 08:24:55;;;;;;;4.43;1.88;;;25.80;65.30;;;;;;5117494;28;20020;-69
2021/06/11 08:27:21;;;;;;;2.55;1.90;;;25.70;67.70;;;;;;5117546;28;20422;-70
2021/06/11 08:29:47;;;;;;;3.70;2.10;;;25.60;68.00;;;;;;5117159;28;20292;-70
2021/06/11 08:32:13;;;;;;;3.67;1.75;;;25.30;70.00;;;;;;5117442;28;20023;-70
2021/06/11 08:34:39;;;;;;;3.58;2.00;;;25.10;68.20;;;;;;5117433;28;20023;-70
2021/06/11 08:37:07;;;;;;;2.67;1.80;;;25.20;68.10;;;;;;5117108;28;20027;-70
2021/06/11 08:39:34;;;;;;;1.90;1.50;;;25.30;68.60;;;;;;5117366;28;20020;-70
2021/06/11 08:42:00;;;;;;;2.50;2.03;;;25.40;69.30;;;;;;5117064;28;20110;-70
2021/06/11 08:44:27;;;;;;;2.22;2.03;;;25.70;66.40;;;;;;5117157;28;20059;-70
2021/06/11 08:46:54;;;;;;;3.55;2.00;;;26.00;65.30;;;;;;5116942;28;20113;-70
2021/06/11 08:49:23;;;;;;;5.65;2.38;;;26.40;65.60;;;;;;5116934;28;20435;-70
2021/06/11 08:51:50;;;;;;;4.63;2.05;;;26.50;66.50;;;;;;5117012;28;20441;-70
2021/06/11 08:54:16;;;;;;;2.53;2.10;;;26.50;65.30;;;;;;5117335;28;20023;-70
2021/06/11 08:56:42;;;;;;;4.90;2.42;;;27.10;63.00;;;;;;5117210;28;20351;-70
2021/06/11 08:59:08;;;;;;;2.67;1.70;;;27.50;61.00;;;;;;5117273;28;20352;-70
2021/06/11 09:01:33;;;;;;;2.83;2.00;;;27.70;63.70;;;;;;5116894;28;20034;-70
2021/06/11 09:03:59;;;;;;;2.90;1.95;;;27.80;63.70;;;;;;5117291;28;20034;-70
2021/06/11 09:06:25;;;;;;;2.58;2.30;;;28.00;65.10;;;;;;5117129;28;20394;-70
2021/06/11 09:08:57;;;;;;;2.50;2.30;;;28.70;58.30;;;;;;5116773;28;20103;-70
2021/06/11 09:11:25;;;;;;;1.70;1.60;;;28.60;60.00;;;;;;5117099;28;20366;-70
2021/06/11 09:14:01;;;;;;;3.50;2.00;;;28.20;61.90;;;;;;5117161;28;20020;-70
2021/06/11 09:16:29;;;;;;;3.63;1.70;;;28.00;59.40;;;;;;5117023;28;20296;-70
2021/06/11 09:18:57;;;;;;;4.03;2.20;;;27.70;64.40;;;;;;5116988;28;20047;-70
2021/06/11 09:21:49;;;;;;;4.55;1.90;;;27.50;62.40;;;;;;5116731;28;20023;-70
2021/06/11 09:24:27;;;;;;;3.83;1.50;;;27.90;64.10;;;;;;5114413;28;20088;-70
2021/06/11 09:26:59;;;;;;;2.13;1.77;;;28.30;63.70;;;;;;5120056;28;20043;-70
2021/06/11 09:29:32;;;;;;;2.45;2.10;;;28.60;59.20;;;;;;5120434;28;20034;-70
2021/06/11 09:32:16;;;;;;;2.85;2.00;;;29.40;60.40;;;;;;5120479;28;20094;-70
2021/06/11 09:34:48;;;;;;;3.42;1.90;;;29.70;57.30;;;;;;5120686;28;20032;-71
2021/06/11 09:37:19;;;;;;;3.47;2.00;;;29.50;63.30;;;;;;5120387;28;20035;-70
2021/06/11 09:39:53;;;;;;;2.33;1.70;;;28.80;63.30;;;;;;5120337;28;20027;-70
2021/06/11 09:42:26;;;;;;;2.45;2.13;;;28.40;56.40;;;;;;5120323;28;20024;-70
2021/06/11 09:45:01;;;;;;;4.78;2.22;;;28.00;63.60;;;;;;5120197;28;20049;-70
2021/06/11 09:47:46;;;;;;;;;;;27.60;59.90;;;;;;5120637;28;20035;-70
2021/06/11 09:50:16;;;;;;;4.93;2.10;;;27.50;64.20;;;;;;5120119;28;19916;-70
2021/06/11 09:53:03;;;;;;;4.07;2.40;;;27.40;61.80;;;;;;5120362;28;20320;-70
2021/06/11 09:55:49;;;;;;;2.17;1.98;;;27.30;61.40;;;;;;5110109;28;20036;-70
2021/06/11 09:58:29;;;;;;;3.20;2.47;;;27.20;59.30;;;;;;5120034;28;20028;-70
2021/06/11 10:00:56;;;;;;;4.07;2.20;;;27.00;60.40;;;;;;5120241;28;20050;-70
2021/06/11 10:03:29;;;;;;;3.20;2.75;;;27.10;64.90;;;;;;5120210;28;20361;-70
2021/06/11 10:05:57;;;;;;;2.80;2.30;;;26.90;58.20;;;;;;5119730;28;20035;-70
2021/06/11 10:08:23;;;;;;;4.47;1.98;;;26.90;61.70;;;;;;5119662;28;20080;-70
2021/06/11 10:10:54;;;;;;;2.75;2.35;;;26.90;68.50;;;;;;5120009;28;20047;-70
2021/06/11 10:13:21;;;;;;;5.82;2.90;;;26.90;66.00;;;;;;5119785;28;20111;-70
2021/06/11 10:15:50;;;;;;;4.20;2.97;;;26.70;63.60;;;;;;5119149;28;20080;-70
2021/06/11 10:18:17;;;;;;;3.90;3.00;;;26.60;64.10;;;;;;5111697;27;20028;-70
2021/06/11 10:20:43;;;;;;;3.28;2.92;;;26.50;64.00;;;;;;5102729;28;20028;-70
2021/06/11 10:23:15;;;;;;;5.47;2.47;;;26.20;66.10;;;;;;5099434;28;20328;-70
2021/06/11 10:25:44;;;;;;;3.42;2.70;;;26.00;68.30;;;;;;5099303;28;20028;-70
2021/06/11 10:28:16;;;;;;;3.45;2.70;;;25.80;67.70;;;;;;5099193;28;20024;-70
2021/06/11 10:30:43;;;;;;;4.30;3.03;;;25.80;68.70;;;;;;5098958;28;20034;-70
2021/06/11 10:33:09;;;;;;;5.20;2.92;;;26.00;67.30;;;;;;5099223;28;20294;-70
2021/06/11 10:35:46;;;;;;;4.25;2.30;;;26.20;68.10;;;;;;5099087;28;20035;-70
2021/06/11 10:38:30;;;;;;;5.43;2.60;;;26.70;66.90;;;;;;5097618;28;20035;-70
2021/06/11 10:41:01;;;;;;;3.75;2.65;;;27.20;66.50;;;;;;5099087;28;20032;-70
2021/06/11 10:43:28;;;;;;;3.40;3.10;;;27.30;64.80;;;;;;5098868;28;20043;-70
2021/06/11 10:45:57;;;;;;;3.28;2.90;;;27.50;61.60;;;;;;5098443;28;20050;-70
2021/06/11 10:48:24;;;;;;;3.53;2.53;;;27.50;60.90;;;;;;5098501;28;20112;-70
2021/06/11 10:50:50;;;;;;;2.83;2.53;;;27.70;67.00;;;;;;5098489;28;20028;-70
2021/06/11 10:53:32;;;;;;;3.25;2.47;;;28.20;59.60;;;;;;5098796;28;20051;-70
2021/06/11 10:56:15;;;;;;;3.38;3.08;;;28.40;65.90;;;;;;5098452;28;20400;-71
2021/06/11 10:58:43;;;;;;;7.45;2.50;;;29.10;60.70;;;;;;5098701;28;20024;-70
2021/06/11 11:04:32;;;;;;;3.75;3.30;;;28.50;60.00;;;;;;5098382;28;20027;-70
2021/06/11 11:07:28;;;;;;;3.65;3.22;;;27.60;57.10;;;;;;5098193;28;20031;-70
2021/06/11 11:09:56;;;;;;;2.85;2.58;;;26.70;62.50;;;;;;5098491;28;20099;-70
2021/06/11 11:12:30;;;;;;;4.78;2.83;;;26.10;66.90;;;;;;5098426;28;20143;-70
2021/06/11 11:14:57;;;;;;;4.65;2.80;;;25.50;65.60;;;;;;5098501;28;20039;-70
2021/06/11 11:17:24;;;;;;;4.00;3.53;;;25.10;68.90;;;;;;5098302;28;20023;-70
2021/06/11 11:19:51;;;;;;;3.40;3.10;;;24.50;70.50;;;;;;5098250;28;20039;-70
2021/06/11 11:22:27;;;;;;;4.50;3.00;;;23.90;71.20;;;;;;5097894;28;20020;-70
2021/06/11 11:24:54;;;;;;;5.07;3.13;;;23.40;73.40;;;;;;5097840;28;20032;-70
2021/06/11 11:27:21;;;;;;;4.30;2.80;;;22.90;71.20;;;;;;5098166;28;20024;-70
2021/06/11 11:29:47;;;;;;;7.90;3.00;;;22.30;75.70;;;;;;5097663;28;20511;-70
2021/06/11 11:32:13;;;;;;;6.43;3.70;;;21.80;78.70;;;;;;5098022;28;20093;-69
2021/06/11 11:34:39;;;;;;;4.43;3.35;;;21.00;79.60;;;;;;5097676;28;20027;-69
2021/06/11 11:37:05;;;;;;;3.05;2.72;;;20.40;84.50;;;;;;5097989;28;20020;-69
2021/06/11 11:39:30;;;;;;;9.60;2.20;;;20.00;82.50;;;;;;5097682;28;20032;-69
2021/06/11 11:41:56;;;;;;;4.70;1.95;;;19.40;80.60;;;;;;5097851;28;20024;-69
2021/06/11 12:13:04;;;;;;;1.10;0.60;;;17.40;85.70;;;;;;5085929;28;20043;-69
2021/06/11 12:15:29;;;;;;;1.00;0.65;;;17.60;86.40;;;;;;5096974;28;20043;-69
2021/06/11 12:17:57;;;;;;;1.50;1.10;;;17.70;85.20;;;;;;5096993;28;20020;-69
2021/06/11 12:20:24;;;;;;;1.27;0.93;;;17.90;85.60;;;;;;5097201;28;20032;-69
2021/06/11 12:22:50;;;;;;;0.98;0.60;;;18.10;84.50;;;;;;5097000;28;20053;-69
2021/06/11 12:25:15;;;;;;;1.42;0.60;;;18.20;79.80;;;;;;5097224;28;20106;-69
2021/06/11 12:27:41;;;;;;;1.50;0.90;;;18.30;82.30;;;;;;5097118;28;20031;-69
2021/06/11 12:30:07;;;;;;;3.50;1.05;;;18.50;79.30;;;;;;5097135;28;20351;-70
2021/06/11 12:32:33;;;;;;;1.00;0.82;;;18.80;83.10;;;;;;5096717;28;20075;-70
2021/06/11 12:34:59;;;;;;;1.08;0.77;;;19.10;79.60;;;;;;5097086;28;20020;-70
2021/06/11 12:37:24;;;;;;;0.70;0.60;;;19.60;79.90;;;;;;5097104;28;20020;-70
2021/06/11 12:39:53;;;;;;;1.23;0.88;;;20.00;76.90;;;;;;5097050;28;20032;-70
2021/06/11 12:42:22;;;;;;;0.77;0.60;;;20.30;74.80;;;;;;5096986;28;20024;-70
2021/06/11 12:44:48;;;;;;;0.80;0.60;;;20.30;71.50;;;;;;5097108;28;20103;-70
2021/06/11 12:47:14;;;;;;;1.00;0.70;;;20.20;71.00;;;;;;5096714;28;20031;-70
2021/06/11 12:49:40;;;;;;;1.38;1.02;;;20.10;70.20;;;;;;5096894;28;20085;-70
2021/06/11 12:52:07;;;;;;;2.08;1.05;;;20.00;71.40;;;;;;5096632;28;20028;-70
2021/06/11 12:54:33;;;;;;;2.45;1.25;;;20.00;75.00;;;;;;5096658;28;20081;-70
2021/06/11 12:56:59;;;;;;;1.77;1.58;;;19.70;78.20;;;;;;5096825;28;20020;-70
2021/06/11 12:59:24;;;;;;;2.13;1.27;;;19.50;80.10;;;;;;5096561;28;20032;-70
2021/06/11 13:01:50;;;;;;;6.55;1.23;;;19.30;80.40;;;;;;5100447;28;20024;-70
2021/06/11 13:04:16;;;;;;;3.28;1.10;;;19.30;79.10;;;;;;5100982;28;20348;-70
2021/06/11 13:06:41;;;;;;;1.33;0.80;;;19.40;76.20;;;;;;5100536;28;20032;-70
2021/06/11 13:09:07;;;;;;;1.58;1.00;;;19.70;73.80;;;;;;5100781;28;20032;-70
2021/06/11 13:11:35;;;;;;;1.27;0.50;;;20.10;70.70;;;;;;5100785;28;20400;-70
2021/06/11 13:14:01;;;;;;;1.10;0.73;;;20.60;68.80;;;;;;5100592;28;20040;-70
2021/06/11 13:16:27;;;;;;;1.33;0.85;;;21.10;69.60;;;;;;5100659;28;20074;-70
2021/06/11 13:18:53;;;;;;;2.72;1.00;;;21.70;70.70;;;;;;5100292;28;20110;-70
2021/06/11 13:21:19;;;;;;;0.63;0.40;;;22.20;67.50;;;;;;5100638;28;20024;-70
2021/06/11 13:23:44;;;;;;;0.60;0.50;;;22.50;66.20;;;;;;5100590;28;20370;-70
2021/06/11 13:26:10;;;;;;;0.57;0.40;;;22.60;67.30;;;;;;5100513;28;20024;-70